Terminal Aerodrome Forecast
Issued by NWS Spokane, WA

Home | Current Version | Previous Version | Text Only | Print | Product List | Glossary On
Versions: 1 2 3 4 5 6 7 8 9 10 11 12 13 14 15 16 17 18 19 20 21 22 23 24 25 26 27 28 29 30 31 32 33 34 35 36 37 38 39 40 41 42 43 44 45 46 47 48
583
FTUS46 KOTX 210938 AAB
TAFGEG
TAF AMD
KGEG 210938Z 2110/2206 13003KT 1SM BR BKN001 OVC012
      TEMPO 2110/2112 5SM BR FEW003 OVC130
     FM211200 06004KT 5SM BR OVC003
     FM211400 05005KT 6SM BCFG SCT001 BKN070 OVC120
     FM211700 VRB04KT 4SM -SNRA BR SCT008 OVC012
     FM220200 28005KT 2SM -SN BR OVC009=

USA.gov is the U.S. government's official web portal to all federal, state and local government web resources and services.